createdAt,value
2019-02-26T00:01:52.928Z,12.23
2019-02-26T00:04:21.042Z,12.37
2019-02-26T00:06:49.312Z,12.37
2019-02-26T00:09:20.444Z,11.93
2019-02-26T00:11:44.192Z,11.67
2019-02-26T00:14:15.543Z,11.80
2019-02-26T00:16:39.988Z,11.47
2019-02-26T00:19:07.394Z,11.83
2019-02-26T00:21:35.556Z,11.17
2019-02-26T00:24:02.081Z,11.90
2019-02-26T00:26:28.925Z,11.30
2019-02-26T00:28:57.164Z,10.70
2019-02-26T00:31:24.321Z,10.70
2019-02-26T00:33:51.765Z,10.20
2019-02-26T00:36:18.443Z,11.03
2019-02-26T00:38:45.287Z,11.00
2019-02-26T00:41:11.768Z,10.90
2019-02-26T00:43:38.259Z,10.77
2019-02-26T00:46:05.589Z,10.93
2019-02-26T00:48:33.728Z,10.70
2019-02-26T00:51:03.042Z,10.43
2019-02-26T00:53:30.617Z,10.30
2019-02-26T00:55:59.407Z,10.63
2019-02-26T00:58:25.855Z,9.80
2019-02-26T01:00:52.405Z,10.07
2019-02-26T01:03:19.229Z,9.80
2019-02-26T01:05:45.768Z,9.60
2019-02-26T01:08:13.337Z,9.70
2019-02-26T01:10:41.593Z,10.30
2019-02-26T01:13:08.752Z,9.30
2019-02-26T01:15:35.591Z,9.87
2019-02-26T01:18:03.201Z,9.40
2019-02-26T01:20:31.945Z,9.13
2019-02-26T01:22:58.899Z,8.73
2019-02-26T01:25:25.412Z,8.97
2019-02-26T01:27:53.234Z,9.00
2019-02-26T01:30:23.576Z,8.57
2019-02-26T01:32:48.398Z,8.73
2019-02-26T01:35:15.252Z,8.50
2019-02-26T01:37:41.775Z,8.47
2019-02-26T01:40:12.267Z,8.87
2019-02-26T01:42:36.686Z,8.77
2019-02-26T01:45:03.231Z,8.77
2019-02-26T01:47:30.059Z,8.47
2019-02-26T01:49:56.595Z,8.30
2019-02-26T01:52:23.433Z,8.27
2019-02-26T01:54:51.347Z,8.60
2019-02-26T01:57:18.365Z,8.70
2019-02-26T01:59:44.882Z,8.70
2019-02-26T02:02:14.778Z,8.40
2019-02-26T02:04:41.191Z,8.87
2019-02-26T02:07:08.186Z,8.70
2019-02-26T02:09:34.708Z,8.17
2019-02-26T02:12:02.127Z,7.50
2019-02-26T02:14:29.321Z,7.20
2019-02-26T02:16:56.152Z,8.37
2019-02-26T02:19:23.567Z,8.27
2019-02-26T02:21:51.507Z,8.13
2019-02-26T02:24:20.543Z,8.27
2019-02-26T02:26:49.806Z,7.77
2019-02-26T02:29:16.907Z,7.60
2019-02-26T02:31:43.655Z,7.83
2019-02-26T02:34:10.193Z,7.27
2019-02-26T02:36:36.641Z,7.50
2019-02-26T02:39:03.262Z,7.37
2019-02-26T02:41:30.139Z,7.13
2019-02-26T02:43:56.941Z,7.73
2019-02-26T02:46:23.476Z,7.63
2019-02-26T02:48:50.328Z,7.47
2019-02-26T02:51:16.885Z,7.10
2019-02-26T02:53:45.290Z,7.50
2019-02-26T02:56:12.910Z,7.40
2019-02-26T02:58:41.805Z,6.87
2019-02-26T03:01:08.522Z,6.67
2019-02-26T03:03:35.054Z,6.80
2019-02-26T03:06:04.893Z,6.97
2019-02-26T03:08:30.577Z,6.43
2019-02-26T03:10:57.113Z,6.87
2019-02-26T03:13:25.440Z,7.27
2019-02-26T03:15:53.570Z,6.23
2019-02-26T03:18:19.996Z,6.40
2019-02-26T03:20:46.634Z,5.70
2019-02-26T03:23:16.076Z,5.63
2019-02-26T03:25:44.002Z,5.80
2019-02-26T03:28:09.613Z,5.77
2019-02-26T03:30:40.509Z,5.93
2019-02-26T03:33:04.811Z,5.87
2019-02-26T03:35:31.492Z,6.07
2019-02-26T03:37:58.977Z,5.60
2019-02-26T03:40:27.054Z,5.87
2019-02-26T03:42:54.348Z,6.10
2019-02-26T03:45:24.723Z,5.53
2019-02-26T03:47:49.271Z,5.43
2019-02-26T03:50:15.801Z,5.10
2019-02-26T03:52:42.330Z,5.13
2019-02-26T03:55:11.493Z,5.40
2019-02-26T03:57:40.942Z,5.83
2019-02-26T04:00:08.181Z,5.40
2019-02-26T04:02:33.691Z,6.03
2019-02-26T04:05:02.987Z,4.97
2019-02-26T04:07:30.284Z,5.17
2019-02-26T04:09:58.575Z,5.20
2019-02-26T04:12:25.056Z,4.70
2019-02-26T04:14:51.504Z,4.77
2019-02-26T04:17:17.969Z,4.73
2019-02-26T04:19:44.738Z,5.30
2019-02-26T04:22:13.144Z,4.97
2019-02-26T04:24:39.873Z,5.00
2019-02-26T04:27:06.409Z,4.83
2019-02-26T04:29:35.447Z,5.10
2019-02-26T04:32:01.341Z,4.90
2019-02-26T04:34:27.855Z,5.07
2019-02-26T04:36:54.695Z,4.90
2019-02-26T04:39:22.171Z,5.10
2019-02-26T04:41:49.301Z,5.00
2019-02-26T04:44:19.178Z,5.10
2019-02-26T04:46:44.220Z,5.00
2019-02-26T04:49:10.750Z,5.03
2019-02-26T04:51:39.854Z,5.37
2019-02-26T04:54:05.663Z,5.10
2019-02-26T04:56:36.004Z,5.80
2019-02-26T04:59:03.339Z,4.43
2019-02-26T05:01:28.648Z,6.93
2019-02-26T05:03:55.181Z,7.67
2019-02-26T05:06:21.727Z,7.77
2019-02-26T05:08:48.607Z,8.83
2019-02-26T05:11:30.896Z,8.60
2019-02-26T05:13:43.470Z,9.20
2019-02-26T05:16:10.000Z,9.60
2019-02-26T05:18:36.537Z,10.20
2019-02-26T05:21:05.223Z,8.77
2019-02-26T05:23:33.589Z,8.60
2019-02-26T05:26:02.966Z,9.27
2019-02-26T05:28:32.662Z,9.63
2019-02-26T05:30:56.281Z,8.83
2019-02-26T05:33:24.772Z,10.00
2019-02-26T05:35:51.580Z,9.90
2019-02-26T05:38:18.271Z,8.03
2019-02-26T05:40:45.717Z,9.00
2019-02-26T05:43:13.260Z,8.53
2019-02-26T05:45:40.745Z,8.37
2019-02-26T05:48:07.545Z,8.80
2019-02-26T05:50:35.431Z,8.07
2019-02-26T05:53:04.933Z,8.00
2019-02-26T05:55:30.529Z,7.50
2019-02-26T05:57:57.368Z,6.80
2019-02-26T06:00:26.239Z,7.80
2019-02-26T06:02:52.290Z,6.67
2019-02-26T06:05:20.531Z,8.50
2019-02-26T06:07:47.192Z,7.27
2019-02-26T06:10:14.035Z,8.50
2019-02-26T06:12:41.484Z,8.27
2019-02-26T06:15:08.956Z,9.00
2019-02-26T06:17:40.686Z,8.50
2019-02-26T06:20:05.611Z,8.47
2019-02-26T06:22:31.948Z,7.83
2019-02-26T06:25:00.283Z,8.23
2019-02-26T06:27:27.456Z,7.60
2019-02-26T06:29:55.492Z,8.00
2019-02-26T06:32:27.508Z,7.97
2019-02-26T06:34:50.756Z,7.47
2019-02-26T06:37:17.286Z,7.93
2019-02-26T06:39:43.816Z,7.80
2019-02-26T06:42:12.097Z,8.20
2019-02-26T06:44:38.940Z,8.00
2019-02-26T06:47:08.665Z,8.17
2019-02-26T06:49:35.053Z,7.60
2019-02-26T06:52:01.713Z,7.80
2019-02-26T06:54:29.051Z,7.00
2019-02-26T06:56:56.328Z,6.80
2019-02-26T06:59:25.024Z,8.20
2019-02-26T07:01:51.228Z,7.60
2019-02-26T07:04:17.758Z,7.63
2019-02-26T07:06:44.602Z,7.60
2019-02-26T07:09:13.308Z,7.37
2019-02-26T07:11:39.515Z,6.80
2019-02-26T07:14:07.982Z,7.40
2019-02-26T07:16:34.427Z,7.40
2019-02-26T07:19:01.234Z,7.13
2019-02-26T07:21:29.136Z,7.27
2019-02-26T07:23:56.512Z,7.60
2019-02-26T07:26:23.882Z,7.30
2019-02-26T07:28:51.082Z,6.90
2019-02-26T07:31:17.934Z,7.10
2019-02-26T07:33:44.780Z,7.13
2019-02-26T07:36:11.310Z,6.93
2019-02-26T07:38:41.301Z,6.60
2019-02-26T07:41:06.309Z,6.20
2019-02-26T07:43:36.621Z,6.83
2019-02-26T07:46:01.101Z,6.40
2019-02-26T07:48:29.464Z,6.17
2019-02-26T07:50:56.049Z,6.57
2019-02-26T07:53:24.549Z,6.17
2019-02-26T07:55:50.958Z,6.80
2019-02-26T07:58:17.932Z,6.37
2019-02-26T08:00:49.168Z,5.90
2019-02-26T08:03:13.018Z,5.87
2019-02-26T08:05:39.556Z,5.87
2019-02-26T08:08:06.091Z,6.10
2019-02-26T08:10:35.165Z,6.00
2019-02-26T08:13:01.566Z,6.23
2019-02-26T08:15:30.307Z,5.67
2019-02-26T08:17:58.431Z,5.53
2019-02-26T08:20:27.894Z,5.40
2019-02-26T08:22:54.225Z,5.87
2019-02-26T08:25:21.855Z,5.50
2019-02-26T08:27:49.946Z,5.47
2019-02-26T08:30:18.788Z,5.43
2019-02-26T08:32:48.505Z,5.70
2019-02-26T08:35:13.020Z,6.10
2019-02-26T08:37:39.862Z,5.77
2019-02-26T08:40:06.400Z,5.53
2019-02-26T08:42:33.239Z,5.50
2019-02-26T08:44:59.686Z,5.47
2019-02-26T08:47:26.313Z,5.17
2019-02-26T08:49:53.152Z,5.67
2019-02-26T08:52:22.031Z,5.20
2019-02-26T08:54:48.060Z,5.07
2019-02-26T08:57:14.597Z,4.87
2019-02-26T08:59:42.180Z,5.10
2019-02-26T09:02:09.509Z,5.47
2019-02-26T09:04:37.961Z,5.10
2019-02-26T09:07:04.419Z,5.60
2019-02-26T09:09:32.716Z,4.83
2019-02-26T09:12:01.210Z,5.50
2019-02-26T09:14:30.028Z,4.93
2019-02-26T09:16:57.090Z,4.93
2019-02-26T09:19:25.287Z,5.17
2019-02-26T09:21:54.290Z,5.17
2019-02-26T09:24:20.299Z,5.00
2019-02-26T09:26:47.395Z,4.63
2019-02-26T09:29:17.242Z,4.70
2019-02-26T09:31:43.586Z,4.70
2019-02-26T09:34:10.122Z,4.90
2019-02-26T09:36:36.657Z,4.80
2019-02-26T09:39:05.632Z,5.03
2019-02-26T09:41:33.243Z,5.23
2019-02-26T09:44:01.920Z,4.67
2019-02-26T09:46:28.017Z,4.80
2019-02-26T09:48:54.555Z,4.57
2019-02-26T09:51:21.399Z,4.80
2019-02-26T09:53:50.083Z,5.20
2019-02-26T09:56:16.305Z,4.13
2019-02-26T09:58:45.607Z,4.33
2019-02-26T10:01:11.769Z,4.50
2019-02-26T10:03:41.326Z,4.20
2019-02-26T10:06:07.277Z,4.37
2019-02-26T10:08:33.892Z,4.13
2019-02-26T10:11:04.284Z,4.10
2019-02-26T10:13:28.807Z,4.70
2019-02-26T10:15:58.210Z,4.23
2019-02-26T10:18:25.507Z,4.63
2019-02-26T10:20:52.343Z,4.77
2019-02-26T10:23:21.775Z,4.43
2019-02-26T10:25:53.067Z,4.40
2019-02-26T10:28:17.105Z,4.33
2019-02-26T10:30:44.690Z,4.30
2019-02-26T10:33:11.218Z,4.50
2019-02-26T10:35:39.660Z,4.10
2019-02-26T10:38:08.373Z,4.27
2019-02-26T10:40:35.579Z,5.03
2019-02-26T10:43:02.579Z,3.83
2019-02-26T10:45:29.113Z,4.70
2019-02-26T10:47:56.680Z,4.67
2019-02-26T10:50:24.895Z,4.37
2019-02-26T10:52:52.747Z,4.43
2019-02-26T10:55:21.920Z,4.57
2019-02-26T10:57:47.827Z,4.60
2019-02-26T11:00:14.484Z,4.00
2019-02-26T11:02:43.211Z,4.17
2019-02-26T11:05:11.081Z,4.40
2019-02-26T11:07:39.922Z,4.50
2019-02-26T11:10:05.625Z,4.10
2019-02-26T11:12:34.022Z,4.10
2019-02-26T11:15:01.437Z,4.07
2019-02-26T11:17:31.588Z,4.37
2019-02-26T11:19:58.522Z,4.60
2019-02-26T11:22:27.421Z,4.03
2019-02-26T11:24:56.122Z,4.10
2019-02-26T11:27:21.946Z,4.30
2019-02-26T11:29:48.857Z,4.10
2019-02-26T11:32:15.804Z,4.70
2019-02-26T11:34:42.888Z,4.13
2019-02-26T11:37:09.682Z,4.33
2019-02-26T11:39:36.221Z,4.13
2019-02-26T11:42:02.730Z,4.33
2019-02-26T11:44:29.204Z,4.00
2019-02-26T11:46:56.440Z,8.87
2019-02-26T11:49:23.293Z,15.23
2019-02-26T11:51:50.125Z,14.73
2019-02-26T11:54:17.686Z,14.37
2019-02-26T11:56:44.764Z,14.40
2019-02-26T11:59:14.401Z,13.30
2019-02-26T12:01:42.131Z,13.70
2019-02-26T12:04:11.322Z,13.17
2019-02-26T12:06:37.315Z,10.63
2019-02-26T12:09:06.114Z,8.50
2019-02-26T12:11:32.009Z,8.30
2019-02-26T12:13:58.762Z,8.50
2019-02-26T12:16:28.399Z,7.67
2019-02-26T12:18:53.683Z,7.33
2019-02-26T12:21:20.514Z,7.03
2019-02-26T12:23:47.047Z,7.63
2019-02-26T12:26:16.000Z,6.87
2019-02-26T12:28:41.958Z,6.27
2019-02-26T12:31:10.943Z,6.55
2019-02-26T12:33:37.183Z,6.10
2019-02-26T12:36:05.222Z,6.22
2019-02-26T12:38:35.439Z,6.17
2019-02-26T12:41:00.450Z,5.90
2019-02-26T12:43:27.150Z,5.47
2019-02-26T12:45:56.085Z,5.40
2019-02-26T12:48:22.745Z,5.57
2019-02-26T12:50:51.954Z,5.40
2019-02-26T12:53:18.902Z,4.87
2019-02-26T12:55:46.128Z,5.13
2019-02-26T12:58:15.231Z,5.40
2019-02-26T13:00:42.125Z,5.40
2019-02-26T13:03:12.348Z,5.00
2019-02-26T13:05:39.241Z,5.13
2019-02-26T13:08:06.247Z,4.77
2019-02-26T13:10:33.320Z,4.40
2019-02-26T13:13:02.988Z,4.60
2019-02-26T13:15:28.238Z,4.77
2019-02-26T13:17:54.774Z,4.10
2019-02-26T13:20:21.607Z,4.50
2019-02-26T13:22:48.145Z,4.90
2019-02-26T13:25:17.495Z,4.40
2019-02-26T13:27:45.268Z,4.73
2019-02-26T13:30:11.123Z,5.33
2019-02-26T13:32:55.087Z,5.67
2019-02-26T13:35:08.085Z,5.23
2019-02-26T13:37:36.602Z,5.27
2019-02-26T13:40:02.541Z,4.83
2019-02-26T13:42:29.328Z,5.57
2019-02-26T13:44:56.167Z,5.80
2019-02-26T13:47:22.701Z,5.67
2019-02-26T13:49:49.548Z,6.00
2019-02-26T13:52:16.082Z,5.23
2019-02-26T13:54:42.617Z,5.37
2019-02-26T13:57:09.464Z,4.93
2019-02-26T13:59:36.051Z,5.50
2019-02-26T14:02:02.643Z,4.63
2019-02-26T14:04:29.364Z,5.00
2019-02-26T14:06:56.127Z,5.77
2019-02-26T14:09:22.663Z,5.60
2019-02-26T14:11:49.582Z,5.27
2019-02-26T14:14:16.117Z,4.97
2019-02-26T14:16:43.267Z,5.73
2019-02-26T14:19:10.108Z,4.87
2019-02-26T14:21:36.663Z,4.80
2019-02-26T14:24:03.177Z,5.27
2019-02-26T14:26:29.712Z,5.60
2019-02-26T14:28:56.247Z,5.00
2019-02-26T14:31:22.783Z,4.93
2019-02-26T14:33:49.623Z,5.23
2019-02-26T14:36:16.163Z,5.07
2019-02-26T14:38:43.003Z,4.77
2019-02-26T14:41:09.848Z,4.80
2019-02-26T14:43:36.683Z,5.47
2019-02-26T14:46:03.525Z,4.43
2019-02-26T14:48:30.069Z,4.97
2019-02-26T14:50:56.591Z,4.20
2019-02-26T14:53:23.226Z,4.00
2019-02-26T14:55:49.754Z,3.83
2019-02-26T14:58:16.911Z,4.73
2019-02-26T15:00:44.079Z,5.80
2019-02-26T15:03:10.798Z,5.80
2019-02-26T15:05:37.333Z,5.87
2019-02-26T15:08:03.868Z,5.67
2019-02-26T15:10:30.709Z,5.77
2019-02-26T15:12:57.554Z,5.50
2019-02-26T15:15:24.092Z,5.50
2019-02-26T15:17:50.927Z,5.43
2019-02-26T15:20:18.697Z,5.40
2019-02-26T15:22:45.955Z,4.73
2019-02-26T15:25:12.683Z,4.80
2019-02-26T15:27:40.258Z,5.13
2019-02-26T15:30:07.600Z,4.77
2019-02-26T15:32:35.049Z,4.60
2019-02-26T15:35:02.199Z,4.20
2019-02-26T15:37:28.735Z,4.17
2019-02-26T15:39:55.883Z,4.27
2019-02-26T15:42:22.432Z,4.43
2019-02-26T15:44:49.056Z,4.33
2019-02-26T15:47:16.099Z,3.83
2019-02-26T15:49:42.636Z,3.50
2019-02-26T15:52:09.476Z,4.10
2019-02-26T15:54:35.954Z,4.20
2019-02-26T15:57:03.163Z,4.40
2019-02-26T15:59:29.758Z,3.40
2019-02-26T16:01:56.716Z,4.10
2019-02-26T16:04:23.376Z,3.60
2019-02-26T16:06:49.917Z,4.30
2019-02-26T16:09:16.450Z,4.47
2019-02-26T16:11:43.307Z,3.80
2019-02-26T16:14:10.133Z,3.50
2019-02-26T16:16:36.981Z,4.20
2019-02-26T16:19:04.182Z,3.67
2019-02-26T16:21:30.963Z,3.70
2019-02-26T16:23:57.808Z,3.80
2019-02-26T16:26:24.284Z,3.40
2019-02-26T16:28:50.755Z,3.50
2019-02-26T16:31:17.412Z,3.67
2019-02-26T16:33:46.428Z,3.43
2019-02-26T16:36:13.016Z,3.77
2019-02-26T16:38:39.777Z,3.27
2019-02-26T16:41:06.381Z,3.60
2019-02-26T16:43:33.154Z,3.63
2019-02-26T16:46:00.001Z,3.20
2019-02-26T16:48:26.835Z,3.27
2019-02-26T16:50:53.941Z,3.40
2019-02-26T16:53:20.528Z,3.60
2019-02-26T16:55:49.142Z,3.40
2019-02-26T16:58:15.195Z,3.53
2019-02-26T17:00:42.376Z,2.83
2019-02-26T17:03:09.510Z,3.43
2019-02-26T17:05:36.269Z,3.17
2019-02-26T17:08:02.800Z,3.27
2019-02-26T17:10:30.507Z,3.77
2019-02-26T17:13:01.893Z,3.07
2019-02-26T17:15:26.952Z,3.27
2019-02-26T17:17:53.857Z,3.33
2019-02-26T17:20:22.526Z,3.30
2019-02-26T17:22:49.090Z,3.37
2019-02-26T17:25:15.910Z,3.43
2019-02-26T17:27:42.473Z,3.30
2019-02-26T17:30:09.286Z,3.00
2019-02-26T17:32:38.231Z,3.73
2019-02-26T17:35:04.199Z,4.93
2019-02-26T17:37:31.051Z,4.03
2019-02-26T17:39:57.899Z,4.23
2019-02-26T17:42:24.416Z,4.40
2019-02-26T17:44:50.993Z,4.13
2019-02-26T17:47:17.801Z,4.07
2019-02-26T17:49:45.262Z,5.07
2019-02-26T17:52:11.724Z,3.73
2019-02-26T17:54:38.212Z,4.80
2019-02-26T17:57:04.856Z,4.53
2019-02-26T17:59:31.355Z,5.13
2019-02-26T18:01:58.142Z,5.23
2019-02-26T18:04:24.679Z,5.20
2019-02-26T18:06:51.172Z,5.10
2019-02-26T18:09:17.735Z,6.00
2019-02-26T18:11:44.263Z,5.03
2019-02-26T18:14:10.910Z,5.07
2019-02-26T18:16:37.753Z,5.13
2019-02-26T18:19:04.277Z,5.70
2019-02-26T18:21:31.171Z,5.43
2019-02-26T18:23:57.668Z,5.23
2019-02-26T18:26:24.265Z,4.90
2019-02-26T18:28:52.614Z,4.87
2019-02-26T18:31:26.172Z,4.80
2019-02-26T18:33:47.478Z,5.33
2019-02-26T18:36:14.016Z,6.53
2019-02-26T18:38:40.853Z,5.57
2019-02-26T18:41:07.327Z,5.97
2019-02-26T18:43:33.929Z,5.90
2019-02-26T18:46:00.756Z,6.33
2019-02-26T18:48:27.914Z,6.13
2019-02-26T18:50:54.760Z,5.90
2019-02-26T18:53:21.291Z,6.10
2019-02-26T18:55:48.135Z,6.43
2019-02-26T18:58:16.346Z,6.83
2019-02-26T19:00:43.057Z,6.17
2019-02-26T19:03:09.883Z,6.47
2019-02-26T19:05:36.526Z,6.67
2019-02-26T19:08:05.567Z,6.07
2019-02-26T19:10:31.331Z,6.07
2019-02-26T19:12:57.870Z,5.93
2019-02-26T19:15:24.709Z,5.40
2019-02-26T19:17:51.281Z,6.20
2019-02-26T19:20:18.086Z,6.13
2019-02-26T19:22:44.930Z,5.43
2019-02-26T19:25:11.459Z,5.63
2019-02-26T19:27:38.298Z,5.63
2019-02-26T19:30:05.219Z,6.43
2019-02-26T19:32:31.983Z,5.63
2019-02-26T19:34:58.697Z,5.47
2019-02-26T19:37:26.896Z,6.87
2019-02-26T19:39:53.739Z,6.30
2019-02-26T19:42:21.104Z,6.00
2019-02-26T19:44:47.733Z,5.67
2019-02-26T19:47:14.370Z,5.87
2019-02-26T19:49:41.103Z,5.83
2019-02-26T19:52:07.738Z,5.67
2019-02-26T19:54:36.503Z,6.23
2019-02-26T19:57:03.780Z,5.53
2019-02-26T19:59:30.320Z,5.43
2019-02-26T20:01:59.051Z,6.10
2019-02-26T20:04:25.228Z,6.23
2019-02-26T20:06:51.759Z,5.70
2019-02-26T20:09:18.606Z,5.60
2019-02-26T20:11:45.444Z,6.43
2019-02-26T20:14:14.628Z,5.93
2019-02-26T20:16:40.356Z,5.77
2019-02-26T20:19:06.889Z,5.60
2019-02-26T20:21:33.426Z,6.03
2019-02-26T20:23:59.957Z,5.93
2019-02-26T20:26:26.803Z,6.23
2019-02-26T20:28:53.646Z,6.20
2019-02-26T20:31:21.942Z,6.10
2019-02-26T20:33:48.552Z,5.80
2019-02-26T20:36:17.847Z,5.10
2019-02-26T20:38:46.163Z,5.23
2019-02-26T20:41:13.088Z,5.40
2019-02-26T20:43:39.914Z,5.67
2019-02-26T20:46:06.456Z,5.30
2019-02-26T20:48:36.550Z,5.87
2019-02-26T20:51:01.067Z,6.03
2019-02-26T20:53:28.508Z,5.93
2019-02-26T20:55:57.718Z,5.60
2019-02-26T20:58:25.267Z,5.77
2019-02-26T21:00:52.111Z,6.10
2019-02-26T21:03:18.657Z,6.00
2019-02-26T21:05:46.320Z,6.00
2019-02-26T21:08:13.254Z,6.17
2019-02-26T21:10:39.780Z,5.97
2019-02-26T21:13:07.523Z,5.90
2019-02-26T21:15:34.387Z,5.90
2019-02-26T21:18:01.235Z,5.80
2019-02-26T21:20:27.766Z,6.53
2019-02-26T21:22:54.962Z,6.10
2019-02-26T21:25:22.375Z,5.80
2019-02-26T21:27:48.901Z,5.57
2019-02-26T21:30:15.743Z,6.13
2019-02-26T21:32:42.224Z,5.80
2019-02-26T21:35:09.117Z,5.73
2019-02-26T21:37:37.501Z,5.83
2019-02-26T21:40:07.149Z,5.80
2019-02-26T21:42:33.944Z,5.23
2019-02-26T21:45:02.565Z,5.90
2019-02-26T21:47:30.784Z,5.70
2019-02-26T21:49:57.537Z,6.00
2019-02-26T21:52:27.334Z,5.50
2019-02-26T21:54:57.529Z,5.40
2019-02-26T21:57:22.682Z,5.87
2019-02-26T21:59:50.137Z,5.10
2019-02-26T22:02:18.880Z,6.40
2019-02-26T22:04:45.348Z,5.77
2019-02-26T22:07:12.188Z,5.80
2019-02-26T22:09:39.031Z,5.33
2019-02-26T22:12:05.570Z,5.60
2019-02-26T22:14:34.013Z,5.67
2019-02-26T22:17:00.495Z,5.60
2019-02-26T22:19:27.012Z,5.80
2019-02-26T22:21:53.563Z,5.60
2019-02-26T22:24:20.118Z,5.73
2019-02-26T22:26:46.839Z,5.73
2019-02-26T22:29:15.175Z,5.40
2019-02-26T22:31:41.840Z,5.77
2019-02-26T22:34:08.368Z,5.43
2019-02-26T22:36:35.211Z,5.80
2019-02-26T22:39:01.758Z,5.97
2019-02-26T22:41:28.549Z,6.20
2019-02-26T22:43:55.605Z,5.67
2019-02-26T22:46:22.609Z,5.37
2019-02-26T22:48:49.421Z,6.10
2019-02-26T22:51:16.263Z,5.30
2019-02-26T22:53:43.104Z,6.00
2019-02-26T22:56:09.641Z,5.20
2019-02-26T22:58:36.477Z,5.67
2019-02-26T23:01:03.018Z,5.83
2019-02-26T23:03:29.857Z,5.73
2019-02-26T23:05:58.773Z,5.73
2019-02-26T23:08:24.772Z,5.67
2019-02-26T23:10:51.497Z,6.53
2019-02-26T23:13:18.128Z,6.00
2019-02-26T23:15:45.922Z,5.67
2019-02-26T23:18:13.003Z,5.83
2019-02-26T23:20:42.542Z,6.00
2019-02-26T23:23:07.682Z,6.23
2019-02-26T23:25:36.070Z,6.30
2019-02-26T23:28:02.366Z,5.97
2019-02-26T23:30:29.134Z,5.93
2019-02-26T23:32:55.645Z,6.27
2019-02-26T23:35:22.487Z,6.37
2019-02-26T23:37:49.328Z,6.77
2019-02-26T23:40:15.873Z,5.87
2019-02-26T23:42:42.704Z,6.30
2019-02-26T23:45:09.241Z,7.90
2019-02-26T23:47:36.079Z,6.70
2019-02-26T23:50:02.933Z,6.93
2019-02-26T23:52:29.458Z,6.27
2019-02-26T23:54:55.991Z,7.30
2019-02-26T23:57:25.016Z,7.10
2019-02-26T23:59:50.726Z,6.90
